Terminal Aerodrome Forecast
Issued by NWS Wakefield, VA

Home | Current Version | Previous Version | Text Only | Print | Product List | Glossary On
Versions: 1 2 3 4 5 6 7 8 9 10 11 12 13 14 15 16 17 18 19
000
FTUS41 KAKQ 012100 AAB
TAFORF
TAF AMD
KORF 012103Z 0121/0218 36009KT 5SM -RA BR BKN004 OVC015
      TEMPO 0121/0124 2SM -RA BR OVC010
     FM020100 24008KT 3SM BR OVC005
     FM020700 23008KT 6SM BR SCT009 OVC015
     FM021300 29008KT P6SM SCT015 OVC030=

USA.gov is the U.S. government's official web portal to all federal, state and local government web resources and services.